Time;durP1;ratioP1;P1;durP2;ratioP2;P2;SDS_P1;SDS_P2;PMS_P1;PMS_P2;Temp;Humidity;BMP_temperature;BMP_pressure;BME280_temperature;BME280_humidity;BME280_pressure;Samples;Min_cycle;Max_cycle;Signal;HPM_P1;HPM_P2
2022/11/25 06:03:37;;;;;;;16.67;8.70;;;2.40;99.90;;;;;;5066034;23;20156;-74
2022/11/25 06:06:04;;;;;;;16.27;8.25;;;2.30;99.90;;;;;;4960377;28;20060;-74
2022/11/25 06:08:31;;;;;;;16.95;8.40;;;2.30;99.90;;;;;;4984859;28;20031;-74
2022/11/25 06:10:56;;;;;;;15.18;8.40;;;2.20;99.90;;;;;;4952364;28;20222;-74
2022/11/25 06:13:23;;;;;;;18.90;8.50;;;2.20;99.90;;;;;;4984695;28;20062;-74
2022/11/25 06:15:49;;;;;;;17.13;8.70;;;2.30;99.90;;;;;;4967571;28;20031;-74
2022/11/25 06:18:21;;;;;;;15.05;8.18;;;2.20;99.90;;;;;;4967427;28;20050;-74
2022/11/25 06:20:58;;;;;;;15.40;8.90;;;2.20;99.90;;;;;;4968334;28;20042;-75
2022/11/25 06:23:25;;;;;;;16.25;8.50;;;2.20;99.90;;;;;;4948609;28;20302;-75
2022/11/25 06:25:51;;;;;;;15.80;9.70;;;2.10;99.90;;;;;;4984767;28;20027;-73
2022/11/25 06:28:18;;;;;;;20.73;11.02;;;2.20;99.90;;;;;;4967202;28;20027;-75
2022/11/25 06:30:47;;;;;;;19.10;9.68;;;2.20;99.90;;;;;;4967085;28;20043;-73
2022/11/25 06:33:22;;;;;;;15.15;8.75;;;2.20;99.90;;;;;;4966755;28;20026;-74
2022/11/25 06:35:49;;;;;;;15.98;9.07;;;2.20;99.90;;;;;;4948101;29;20365;-76
2022/11/25 06:38:14;;;;;;;16.35;9.35;;;2.20;99.90;;;;;;4967894;28;20026;-75
2022/11/25 06:40:40;;;;;;;18.70;8.90;;;2.30;99.90;;;;;;4984635;28;20035;-75
2022/11/25 06:43:06;;;;;;;20.35;9.77;;;2.30;99.90;;;;;;4983786;28;20031;-74
2022/11/25 06:45:32;;;;;;;17.38;8.93;;;2.30;99.90;;;;;;4983557;28;20026;-74
2022/11/25 06:47:58;;;;;;;16.60;8.93;;;2.30;99.90;;;;;;4984318;28;20026;-74
2022/11/25 06:50:23;;;;;;;18.25;8.18;;;2.40;99.90;;;;;;4969725;28;20108;-73
2022/11/25 06:52:49;;;;;;;15.43;8.40;;;2.40;99.90;;;;;;4968890;28;20027;-75
2022/11/25 06:55:15;;;;;;;17.80;9.38;;;2.50;99.90;;;;;;4983256;28;20027;-76
2022/11/25 06:57:41;;;;;;;24.40;10.98;;;2.40;99.90;;;;;;4996188;28;20053;-74
2022/11/25 07:00:07;;;;;;;19.90;9.98;;;2.50;99.90;;;;;;4971105;28;20123;-76
2022/11/25 07:02:36;;;;;;;21.85;10.77;;;2.60;99.90;;;;;;4992293;28;20054;-75
2022/11/25 07:05:01;;;;;;;20.23;9.90;;;2.60;99.90;;;;;;5003506;28;20031;-76
2022/11/25 07:07:27;;;;;;;22.70;9.88;;;2.70;99.90;;;;;;5003184;28;20080;-75
2022/11/25 07:09:56;;;;;;;25.63;11.20;;;2.70;99.90;;;;;;5002494;28;20033;-75
2022/11/25 07:12:22;;;;;;;24.40;10.05;;;2.90;99.90;;;;;;4992231;28;20073;-74
2022/11/25 07:14:50;;;;;;;25.50;9.85;;;3.00;99.90;;;;;;4982879;28;20022;-74
2022/11/25 07:17:16;;;;;;;;;;;3.10;99.90;;;;;;5003455;28;20315;-77
2022/11/25 07:19:41;;;;;;;20.52;9.38;;;3.30;99.90;;;;;;5003227;28;19917;-73
2022/11/25 07:22:07;;;;;;;22.25;9.35;;;3.30;99.90;;;;;;5002817;28;20046;-75
2022/11/25 07:24:36;;;;;;;15.93;8.52;;;3.50;99.90;;;;;;5002707;28;20086;-74
2022/11/25 07:27:04;;;;;;;18.20;8.05;;;3.60;99.90;;;;;;5003227;28;20022;-74
2022/11/25 07:29:36;;;;;;;;;;;3.70;99.90;;;;;;4986133;28;20023;-78
2022/11/25 07:32:27;;;;;;;20.13;8.80;;;3.80;99.90;;;;;;4974173;28;19921;-75
2022/11/25 07:34:53;;;;;;;14.82;8.05;;;3.80;99.90;;;;;;4980665;28;20051;-73
2022/11/25 07:37:20;;;;;;;17.38;8.05;;;3.90;99.90;;;;;;4983979;28;20042;-75
2022/11/25 07:39:46;;;;;;;14.30;7.30;;;4.00;99.90;;;;;;4974598;28;20046;-74
2022/11/25 07:42:12;;;;;;;14.55;7.05;;;4.10;99.90;;;;;;5003360;28;20034;-73
2022/11/25 07:44:38;;;;;;;14.95;7.25;;;4.20;99.90;;;;;;5004278;28;20026;-73
2022/11/25 07:47:32;;;;;;;13.50;7.13;;;4.30;99.90;;;;;;4991319;28;20077;-74
2022/11/25 07:49:58;;;;;;;13.23;7.13;;;4.30;99.90;;;;;;4987265;28;20046;-76
2022/11/25 07:52:24;;;;;;;14.32;7.60;;;4.30;99.90;;;;;;4984714;28;20088;-74
2022/11/25 07:54:50;;;;;;;13.95;7.40;;;4.40;99.90;;;;;;5002164;28;20161;-74
2022/11/25 07:57:16;;;;;;;13.93;6.82;;;4.50;99.90;;;;;;4998767;28;20330;-74
2022/11/25 07:59:42;;;;;;;14.07;6.97;;;4.50;99.90;;;;;;4982291;28;20090;-75
2022/11/25 08:02:09;;;;;;;13.05;6.38;;;4.60;99.90;;;;;;4975112;28;20054;-76
2022/11/25 08:04:36;;;;;;;12.93;6.30;;;4.70;99.90;;;;;;4985322;28;20064;-75
2022/11/25 08:07:02;;;;;;;10.45;5.68;;;4.70;99.90;;;;;;4986644;28;20109;-74
2022/11/25 08:09:28;;;;;;;11.05;6.43;;;4.70;99.90;;;;;;4971873;28;20025;-75
2022/11/25 08:11:54;;;;;;;11.73;6.20;;;4.80;99.90;;;;;;5006053;28;20042;-76
2022/11/25 08:14:20;;;;;;;9.30;6.05;;;4.80;99.90;;;;;;5005790;28;20061;-76
2022/11/25 08:16:46;;;;;;;12.73;6.57;;;4.90;99.90;;;;;;4988178;28;20041;-74
2022/11/25 08:19:14;;;;;;;10.35;6.40;;;4.90;99.90;;;;;;5005604;28;20038;-75
2022/11/25 08:21:41;;;;;;;12.25;6.22;;;5.00;99.90;;;;;;5005527;28;20026;-74
2022/11/25 08:24:08;;;;;;;11.45;6.00;;;5.00;99.90;;;;;;5005536;28;20038;-75
2022/11/25 08:26:36;;;;;;;13.07;6.60;;;5.10;99.90;;;;;;5005435;28;20045;-74
2022/11/25 08:29:04;;;;;;;14.20;6.87;;;5.00;99.90;;;;;;4988012;28;20473;-73
2022/11/25 08:31:36;;;;;;;12.88;6.40;;;5.00;99.90;;;;;;4987854;28;20129;-74
2022/11/25 08:34:04;;;;;;;10.35;6.38;;;5.00;99.90;;;;;;5005438;28;20220;-74
2022/11/25 08:36:31;;;;;;;13.98;7.10;;;5.10;99.90;;;;;;4987389;28;20036;-76
2022/11/25 08:38:58;;;;;;;11.50;6.75;;;5.20;99.90;;;;;;4988020;28;20030;-75
2022/11/25 08:41:28;;;;;;;13.73;7.20;;;5.10;99.90;;;;;;5004946;28;20033;-74
2022/11/25 08:43:54;;;;;;;13.60;6.82;;;5.00;99.90;;;;;;5005519;28;20037;-75
2022/11/25 08:46:23;;;;;;;13.68;7.40;;;5.00;99.90;;;;;;4987382;28;20030;-75
2022/11/25 08:48:49;;;;;;;10.88;6.07;;;5.00;99.90;;;;;;5005398;28;20085;-74
2022/11/25 08:51:19;;;;;;;12.30;6.07;;;5.20;99.90;;;;;;5005741;28;20043;-74
2022/11/25 08:53:46;;;;;;;13.40;6.45;;;5.40;99.90;;;;;;4988165;28;20049;-75
2022/11/25 08:56:13;;;;;;;11.70;5.97;;;5.50;99.90;;;;;;4974346;28;20054;-73
2022/11/25 08:58:39;;;;;;;16.52;6.75;;;5.50;99.90;;;;;;5004862;28;20029;-74
2022/11/25 09:01:10;;;;;;;13.23;6.88;;;5.60;99.90;;;;;;5004989;28;20030;-75
2022/11/25 09:03:41;;;;;;;10.95;6.07;;;5.60;99.90;;;;;;5004222;28;20142;-73
2022/11/25 09:06:08;;;;;;;9.32;6.18;;;5.50;99.90;;;;;;5004504;28;20042;-74
2022/11/25 09:08:34;;;;;;;17.30;6.82;;;5.70;99.90;;;;;;5004540;28;20030;-75
2022/11/25 09:11:00;;;;;;;14.20;6.25;;;5.80;99.90;;;;;;4989054;28;20041;-73
2022/11/25 09:13:26;;;;;;;13.38;6.10;;;5.80;99.90;;;;;;4985081;28;20166;-77
2022/11/25 09:15:52;;;;;;;12.10;6.28;;;6.00;99.90;;;;;;4985788;28;20066;-76
2022/11/25 09:18:25;;;;;;;13.30;6.20;;;6.10;99.90;;;;;;4967208;28;20031;-74
2022/11/25 09:20:52;;;;;;;11.90;6.00;;;6.30;99.90;;;;;;4968380;28;20034;-74
2022/11/25 09:23:24;;;;;;;13.18;5.90;;;6.50;99.90;;;;;;4985189;28;20308;-76
2022/11/25 09:25:56;;;;;;;13.80;6.50;;;6.80;99.90;;;;;;4985307;28;20032;-77
2022/11/25 09:28:24;;;;;;;9.48;5.93;;;7.00;99.90;;;;;;4967181;28;20034;-78
2022/11/25 09:31:18;;;;;;;;;;;7.30;99.90;;;;;;4993821;28;20057;-76
2022/11/25 09:33:44;;;;;;;9.10;5.70;;;7.30;99.90;;;;;;5004126;28;20235;-77
2022/11/25 09:36:12;;;;;;;12.85;5.65;;;7.50;99.90;;;;;;5004454;28;20034;-77
2022/11/25 09:39:28;;;;;;;10.60;5.97;;;7.50;99.90;;;;;;5002859;28;20030;-77
2022/11/25 09:48:59;;;;;;;9.75;5.50;;;7.40;99.90;;;;;;5004010;28;20056;-78
2022/11/25 09:52:01;;;;;;;11.80;6.18;;;7.60;99.90;;;;;;5005919;28;20044;-75
2022/11/25 09:55:10;;;;;;;11.13;6.05;;;7.60;99.90;;;;;;5003534;28;20038;-78
2022/11/25 09:58:10;;;;;;;12.32;5.63;;;7.70;99.90;;;;;;5003422;28;20038;-75
2022/11/25 10:10:51;;;;;;;9.05;6.07;;;8.20;99.90;;;;;;4924879;29;20035;-77
2022/11/25 10:13:43;;;;;;;9.95;6.50;;;8.50;99.90;;;;;;4984113;28;20156;-76
2022/11/25 10:16:33;;;;;;;12.02;5.88;;;8.50;99.90;;;;;;4984362;28;20090;-78
2022/11/25 10:19:29;;;;;;;11.57;6.38;;;8.50;99.90;;;;;;4905398;29;20057;-78
2022/11/25 10:25:47;;;;;;;7.97;5.30;;;8.50;99.90;;;;;;4905758;29;20080;-78
2022/11/25 10:28:35;;;;;;;11.30;5.80;;;8.50;99.90;;;;;;4831085;29;20053;-78
2022/11/25 10:31:27;;;;;;;12.55;5.80;;;8.50;99.90;;;;;;4814592;29;20112;-76
2022/11/25 10:37:06;;;;;;;11.55;6.22;;;9.00;99.90;;;;;;4850166;29;20049;-77
2022/11/25 10:39:34;;;;;;;10.20;5.13;;;9.20;99.90;;;;;;4850478;29;20054;-78
2022/11/25 10:42:35;;;;;;;10.87;6.60;;;9.40;99.90;;;;;;4849873;29;20034;-77
2022/11/25 10:45:07;;;;;;;9.68;5.90;;;9.80;99.90;;;;;;4845112;29;20629;-77
2022/11/25 10:51:19;;;;;;;10.57;5.78;;;10.00;99.90;;;;;;4850251;29;20054;-77
2022/11/25 10:54:08;;;;;;;10.32;5.60;;;10.20;99.90;;;;;;4834578;29;20098;-77
2022/11/25 10:56:51;;;;;;;14.27;6.13;;;10.10;99.90;;;;;;4889230;29;20092;-76
2022/11/25 10:59:26;;;;;;;10.68;6.47;;;10.00;99.90;;;;;;4905231;29;20159;-75
2022/11/25 11:02:23;;;;;;;14.23;5.90;;;9.80;99.90;;;;;;4904468;29;20063;-77
2022/11/25 11:04:54;;;;;;;12.23;6.20;;;9.80;99.90;;;;;;4928251;28;20039;-76
2022/11/25 11:07:20;;;;;;;14.85;6.30;;;9.60;99.90;;;;;;4983046;28;20324;-76
2022/11/25 11:09:47;;;;;;;10.20;5.97;;;9.60;99.90;;;;;;4982420;28;20023;-77
2022/11/25 11:12:24;;;;;;;13.32;6.45;;;9.60;99.90;;;;;;4983047;28;20034;-76
2022/11/25 11:14:51;;;;;;;11.93;6.35;;;9.50;99.90;;;;;;4983059;28;20035;-76
2022/11/25 11:17:26;;;;;;;15.97;7.33;;;9.40;99.90;;;;;;4965834;28;20086;-76
2022/11/25 11:20:13;;;;;;;15.93;6.72;;;9.40;99.90;;;;;;4982751;28;20030;-76
2022/11/25 11:22:50;;;;;;;13.57;6.90;;;9.30;99.90;;;;;;4982317;28;20031;-78
2022/11/25 11:25:19;;;;;;;13.35;6.57;;;9.20;99.90;;;;;;4965833;28;20035;-77
2022/11/25 11:27:47;;;;;;;13.73;6.70;;;9.20;99.90;;;;;;4964819;28;20101;-75
2022/11/25 11:30:22;;;;;;;13.57;6.73;;;9.20;99.90;;;;;;4985247;28;20045;-77
2022/11/25 11:33:26;;;;;;;13.55;7.57;;;9.20;99.90;;;;;;5001403;28;20450;-77
2022/11/25 11:36:07;;;;;;;14.93;6.85;;;9.10;99.90;;;;;;4939972;28;20069;-77
2022/11/25 11:38:56;;;;;;;11.68;6.40;;;9.00;99.90;;;;;;5001755;28;20034;-75
2022/11/25 11:41:42;;;;;;;16.38;6.38;;;8.90;99.90;;;;;;5001570;28;20053;-79
2022/11/25 11:44:33;;;;;;;14.40;6.13;;;8.90;99.90;;;;;;5001785;28;20045;-76
2022/11/25 11:47:17;;;;;;;11.15;6.13;;;8.90;99.90;;;;;;4989280;28;20288;-76
2022/11/25 11:49:43;;;;;;;12.73;6.95;;;9.00;99.90;;;;;;4968811;28;20054;-78
2022/11/25 11:52:27;;;;;;;12.68;6.55;;;9.00;99.90;;;;;;4975229;28;20058;-74
2022/11/25 11:55:01;;;;;;;18.20;6.88;;;9.10;99.90;;;;;;4977084;28;20030;-79
2022/11/25 11:57:38;;;;;;;14.77;7.20;;;9.10;99.90;;;;;;4978324;28;20026;-74
2022/11/25 12:00:15;;;;;;;14.80;6.97;;;9.10;99.90;;;;;;4971106;28;20027;-74
2022/11/25 12:03:13;;;;;;;17.97;8.27;;;9.10;99.90;;;;;;4982390;28;20054;-75
2022/11/25 12:05:39;;;;;;;14.20;6.22;;;9.10;99.90;;;;;;4977226;28;20054;-77
2022/11/25 12:08:30;;;;;;;11.63;6.53;;;9.20;99.90;;;;;;4958196;28;20040;-79
2022/11/25 12:11:04;;;;;;;13.13;6.68;;;9.20;99.90;;;;;;4975801;28;20483;-75
2022/11/25 12:13:41;;;;;;;14.35;7.13;;;9.30;99.90;;;;;;4955361;28;20089;-76
2022/11/25 12:16:09;;;;;;;12.43;6.22;;;9.40;99.90;;;;;;4968387;28;20257;-73
2022/11/25 12:18:42;;;;;;;13.90;6.82;;;9.30;99.90;;;;;;4997802;28;20220;-77
2022/11/25 12:21:38;;;;;;;13.43;6.30;;;9.30;99.90;;;;;;4975059;28;20193;-77
2022/11/25 12:24:37;;;;;;;12.73;6.68;;;9.30;99.90;;;;;;4983641;28;20034;-77
2022/11/25 12:27:07;;;;;;;14.20;7.38;;;9.30;99.90;;;;;;4986919;28;21190;-76
2022/11/25 12:29:48;;;;;;;13.05;6.53;;;9.30;99.90;;;;;;4987531;28;20384;-75
2022/11/25 12:32:33;;;;;;;11.60;6.68;;;9.30;99.90;;;;;;4972856;28;20050;-75
2022/11/25 12:35:04;;;;;;;12.00;5.97;;;9.30;99.90;;;;;;4975490;28;20043;-73
2022/11/25 12:37:37;;;;;;;12.32;6.30;;;9.40;99.90;;;;;;4985253;28;20049;-74
2022/11/25 12:40:26;;;;;;;13.10;6.30;;;9.40;99.90;;;;;;4989601;28;20035;-76
2022/11/25 12:42:55;;;;;;;11.80;5.65;;;9.50;99.90;;;;;;4979055;28;20442;-76
2022/11/25 12:45:22;;;;;;;10.70;5.85;;;9.50;99.90;;;;;;4990824;28;20032;-76
2022/11/25 12:47:49;;;;;;;11.52;5.47;;;9.60;99.90;;;;;;4992608;28;20131;-76
2022/11/25 12:50:43;;;;;;;10.32;5.97;;;9.50;99.90;;;;;;4990580;28;20047;-72
2022/11/25 12:53:24;;;;;;;10.68;5.40;;;9.50;99.90;;;;;;4952456;28;20054;-76
2022/11/25 12:55:52;;;;;;;11.77;5.75;;;9.40;99.90;;;;;;4968318;28;20045;-74
2022/11/25 12:58:44;;;;;;;12.80;5.90;;;9.40;99.90;;;;;;4984601;28;20011;-77
2022/11/25 13:01:19;;;;;;;10.73;4.60;;;9.40;99.90;;;;;;4980619;28;20106;-74
2022/11/25 13:03:58;;;;;;;8.88;4.20;;;9.40;99.90;;;;;;4982260;28;20047;-75
2022/11/25 13:06:47;;;;;;;10.30;4.10;;;9.30;99.90;;;;;;4969991;28;20051;-76
2022/11/25 13:09:43;;;;;;;12.23;3.95;;;9.30;99.90;;;;;;4975243;28;20026;-75
2022/11/25 13:12:37;;;;;;;11.75;4.50;;;9.20;99.90;;;;;;4964629;28;20053;-76
2022/11/25 13:15:17;;;;;;;12.38;4.32;;;9.20;99.90;;;;;;4964694;28;20051;-75
2022/11/25 13:17:46;;;;;;;11.90;4.32;;;9.20;99.90;;;;;;4959583;28;20046;-76
2022/11/25 13:20:27;;;;;;;12.60;3.58;;;9.20;99.90;;;;;;4973388;28;20026;-74
2022/11/25 13:23:09;;;;;;;11.32;3.70;;;9.20;99.90;;;;;;4975540;28;20101;-73
2022/11/25 13:25:37;;;;;;;8.20;3.30;;;9.20;99.90;;;;;;4970425;28;20051;-73
2022/11/25 13:28:24;;;;;;;9.18;3.88;;;9.20;99.90;;;;;;4960820;28;20035;-73
2022/11/25 13:30:52;;;;;;;9.50;4.13;;;9.30;99.90;;;;;;4969313;28;20042;-76
2022/11/25 13:33:23;;;;;;;7.65;3.53;;;9.30;99.90;;;;;;4964154;28;20059;-75
2022/11/25 13:35:53;;;;;;;10.55;3.80;;;9.40;99.90;;;;;;4969167;28;20027;-74
2022/11/25 13:38:36;;;;;;;10.48;3.28;;;9.60;99.90;;;;;;4967967;28;20035;-75
2022/11/25 13:41:21;;;;;;;9.02;3.42;;;9.60;99.90;;;;;;4977274;28;20260;-75
2022/11/25 13:44:19;;;;;;;12.18;3.40;;;9.60;99.90;;;;;;4967950;28;20324;-75
2022/11/25 13:46:51;;;;;;;8.32;4.35;;;9.70;99.90;;;;;;4954281;28;20054;-75
2022/11/25 13:49:39;;;;;;;8.98;3.60;;;9.60;99.90;;;;;;4967533;28;20038;-74
2022/11/25 13:52:28;;;;;;;11.68;3.30;;;9.70;99.90;;;;;;4969355;28;20220;-75
2022/11/25 13:54:55;;;;;;;7.30;3.40;;;10.10;99.90;;;;;;4971122;28;20119;-76
2022/11/25 13:57:28;;;;;;;8.35;3.15;;;10.70;99.90;;;;;;4970510;28;20034;-75
2022/11/25 14:00:00;;;;;;;8.27;3.13;;;11.00;99.90;;;;;;4955615;28;20031;-74
2022/11/25 14:02:26;;;;;;;8.73;3.20;;;11.00;99.90;;;;;;4980325;28;20358;-76
2022/11/25 14:05:07;;;;;;;6.85;3.05;;;11.00;99.90;;;;;;4985915;28;20035;-75
2022/11/25 14:08:07;;;;;;;10.68;3.88;;;11.00;99.90;;;;;;4982720;28;20298;-77
2022/11/25 14:11:00;;;;;;;9.38;3.95;;;11.10;99.90;;;;;;4971436;28;20260;-76
2022/11/25 14:13:47;;;;;;;7.55;3.63;;;11.20;99.90;;;;;;4987207;28;20064;-76
2022/11/25 14:16:31;;;;;;;9.33;3.70;;;11.20;99.90;;;;;;4995595;28;20036;-74
2022/11/25 14:19:12;;;;;;;11.57;3.38;;;11.40;99.90;;;;;;4969671;28;20818;-73
2022/11/25 14:21:57;;;;;;;25.17;11.77;;;11.60;99.90;;;;;;4990410;28;20038;-74
2022/11/25 14:24:37;;;;;;;13.38;5.13;;;11.50;99.90;;;;;;4969453;28;20045;-74
2022/11/25 14:27:04;;;;;;;8.70;3.60;;;11.20;99.90;;;;;;4986461;28;20185;-73
2022/11/25 14:30:02;;;;;;;6.60;2.38;;;11.20;99.90;;;;;;4965346;28;20149;-75
2022/11/25 14:32:52;;;;;;;7.95;2.05;;;11.10;99.90;;;;;;4960847;28;20050;-74
2022/11/25 14:35:22;;;;;;;6.80;1.90;;;10.90;99.90;;;;;;4977929;28;20343;-74
2022/11/25 14:38:07;;;;;;;8.93;1.60;;;10.80;99.90;;;;;;4976021;28;20023;-73
2022/11/25 14:40:59;;;;;;;6.63;1.80;;;10.80;99.90;;;;;;4979615;28;21360;-73
2022/11/25 14:43:28;;;;;;;6.25;1.75;;;10.80;99.90;;;;;;4983187;28;20678;-74
2022/11/25 14:46:15;;;;;;;5.78;1.52;;;10.80;99.90;;;;;;4985503;28;20179;-75
2022/11/25 14:48:42;;;;;;;7.57;1.67;;;10.70;99.90;;;;;;4994164;28;20049;-75
2022/11/25 14:51:11;;;;;;;7.35;1.30;;;10.70;99.90;;;;;;4988088;28;20031;-74
2022/11/25 14:53:43;;;;;;;7.43;1.70;;;10.50;99.90;;;;;;4989492;28;20140;-75
2022/11/25 14:56:10;;;;;;;6.10;1.52;;;10.50;99.90;;;;;;4978658;28;21197;-74
2022/11/25 14:58:51;;;;;;;6.85;1.42;;;10.40;99.90;;;;;;4983077;28;20221;-76
2022/11/25 15:01:28;;;;;;;10.10;1.75;;;10.30;99.90;;;;;;4976153;28;20262;-75
2022/11/25 15:04:10;;;;;;;8.03;1.77;;;10.30;99.90;;;;;;4983207;28;20085;-75
2022/11/25 15:06:39;;;;;;;4.50;1.38;;;10.20;99.90;;;;;;4982137;28;20328;-74
2022/11/25 15:09:17;;;;;;;;;;;10.00;99.90;;;;;;4978822;28;20050;-73
2022/11/25 15:11:43;;;;;;;6.53;1.30;;;10.00;99.90;;;;;;4983226;28;19937;-74
2022/11/25 15:14:21;;;;;;;9.50;2.17;;;10.00;99.90;;;;;;4988900;28;20022;-74
2022/11/25 15:16:47;;;;;;;;;;;9.90;99.90;;;;;;4978486;28;20109;-74
2022/11/25 15:19:18;;;;;;;8.27;1.65;;;9.80;99.90;;;;;;4979633;28;20087;-74
2022/11/25 15:21:45;;;;;;;6.07;1.80;;;9.80;99.90;;;;;;4980651;28;20026;-75
2022/11/25 15:24:23;;;;;;;8.57;1.77;;;9.70;99.90;;;;;;4973106;28;20121;-76
2022/11/25 15:26:54;;;;;;;10.32;1.90;;;9.70;99.90;;;;;;4979217;28;20316;-76
2022/11/25 15:29:23;;;;;;;7.20;1.73;;;9.70;99.90;;;;;;4961322;28;20308;-73
2022/11/25 15:31:53;;;;;;;9.18;1.88;;;9.60;99.90;;;;;;4989759;28;20383;-76
2022/11/25 15:34:21;;;;;;;10.15;2.10;;;9.70;99.90;;;;;;4951596;28;20070;-75
2022/11/25 15:36:47;;;;;;;9.68;1.63;;;9.70;99.90;;;;;;4940048;28;20240;-75
2022/11/25 15:39:17;;;;;;;7.10;1.95;;;9.70;99.90;;;;;;4964484;28;20077;-76
2022/11/25 15:41:47;;;;;;;5.85;1.50;;;9.70;99.90;;;;;;4993214;28;20038;-74
2022/11/25 15:44:54;;;;;;;8.25;2.25;;;9.70;99.90;;;;;;4993618;28;20050;-74
2022/11/25 15:47:28;;;;;;;10.40;2.22;;;9.80;99.90;;;;;;4978786;28;20208;-74
2022/11/25 15:50:22;;;;;;;7.10;2.00;;;9.70;99.90;;;;;;4989356;28;20042;-74
2022/11/25 15:52:59;;;;;;;12.13;1.70;;;9.70;99.90;;;;;;4960841;28;20042;-77
2022/11/25 15:55:37;;;;;;;8.05;2.17;;;9.70;99.90;;;;;;4972796;28;20049;-75
2022/11/25 15:58:35;;;;;;;10.95;3.00;;;9.60;99.90;;;;;;4958441;28;20103;-75
2022/11/25 16:01:18;;;;;;;8.20;2.63;;;9.60;99.90;;;;;;4913367;28;20065;-74
2022/11/25 16:03:48;;;;;;;10.57;2.10;;;9.50;99.90;;;;;;4968244;28;20042;-75
2022/11/25 16:06:32;;;;;;;9.23;1.90;;;9.50;99.90;;;;;;4967165;28;20391;-76
2022/11/25 16:09:00;;;;;;;9.90;2.22;;;9.50;99.90;;;;;;4963064;28;20027;-76
2022/11/25 16:11:31;;;;;;;6.85;1.85;;;9.40;99.90;;;;;;4965705;28;20053;-76
2022/11/25 16:14:27;;;;;;;10.13;2.53;;;9.40;99.90;;;;;;4945030;28;20042;-76
2022/11/25 16:17:02;;;;;;;8.75;2.53;;;9.40;99.90;;;;;;4968426;28;20023;-77
2022/11/25 16:19:34;;;;;;;9.80;3.00;;;9.40;99.90;;;;;;4966087;28;20253;-76
2022/11/25 16:22:02;;;;;;;12.75;2.78;;;9.40;99.90;;;;;;4952111;28;20321;-77
2022/11/25 16:24:49;;;;;;;7.47;2.40;;;9.30;99.90;;;;;;4968101;28;20050;-77
2022/11/25 16:27:18;;;;;;;9.68;3.55;;;9.30;99.90;;;;;;4971957;28;20058;-78
2022/11/25 16:29:55;;;;;;;7.90;2.17;;;9.40;99.90;;;;;;4973446;28;20392;-77
2022/11/25 16:32:27;;;;;;;8.20;2.65;;;9.30;99.90;;;;;;4966458;28;20039;-75
2022/11/25 16:34:55;;;;;;;9.23;3.15;;;9.30;99.90;;;;;;4972446;28;20041;-76
2022/11/25 16:37:21;;;;;;;10.82;3.17;;;9.30;99.90;;;;;;4979781;28;20312;-76
2022/11/25 16:39:47;;;;;;;11.00;3.10;;;9.30;99.90;;;;;;4985287;28;20034;-74
2022/11/25 16:42:18;;;;;;;9.10;3.05;;;9.20;99.90;;;;;;4966470;28;20256;-76
2022/11/25 16:44:47;;;;;;;9.30;2.88;;;9.20;99.90;;;;;;4979411;28;20102;-76
2022/11/25 16:47:13;;;;;;;11.68;2.90;;;9.20;99.90;;;;;;4965827;28;20031;-76
2022/11/25 16:49:39;;;;;;;14.57;4.10;;;9.20;99.90;;;;;;4965927;28;20089;-74
2022/11/25 16:52:05;;;;;;;9.85;3.15;;;9.20;99.90;;;;;;4965606;29;20039;-75
2022/11/25 16:54:32;;;;;;;9.95;3.25;;;9.10;99.90;;;;;;4965221;29;20119;-75
2022/11/25 16:56:58;;;;;;;11.43;2.70;;;9.10;99.90;;;;;;4967431;28;20039;-75
2022/11/25 16:59:37;;;;;;;9.13;2.47;;;9.10;99.90;;;;;;4984283;28;20241;-75
2022/11/25 17:02:16;;;;;;;9.85;3.05;;;9.10;99.90;;;;;;4984533;28;20193;-75
2022/11/25 17:04:42;;;;;;;10.10;2.88;;;9.10;99.90;;;;;;4968040;28;20105;-78
2022/11/25 17:07:13;;;;;;;11.27;3.05;;;9.00;99.90;;;;;;4973110;28;20063;-74
2022/11/25 17:09:40;;;;;;;9.15;2.63;;;9.00;99.90;;;;;;4973338;28;20035;-75
2022/11/25 17:12:13;;;;;;;9.98;2.40;;;9.00;99.90;;;;;;4977294;28;20051;-77
2022/11/25 17:14:39;;;;;;;12.77;4.28;;;8.90;99.90;;;;;;4968229;28;20062;-77
2022/11/25 17:17:04;;;;;;;8.05;2.83;;;9.00;99.90;;;;;;4984752;28;20042;-75
2022/11/25 17:19:30;;;;;;;9.70;2.30;;;9.00;99.90;;;;;;4968059;28;20022;-76
2022/11/25 17:22:13;;;;;;;9.65;2.58;;;9.00;99.90;;;;;;4984092;28;20023;-74
2022/11/25 17:24:39;;;;;;;9.07;2.50;;;8.90;99.90;;;;;;4960744;28;20030;-76
2022/11/25 17:27:05;;;;;;;10.88;2.80;;;9.00;99.90;;;;;;4967764;28;20035;-77
2022/11/25 17:29:36;;;;;;;10.50;2.50;;;9.00;99.90;;;;;;4984928;28;20037;-75
2022/11/25 17:32:03;;;;;;;7.90;2.53;;;9.00;99.90;;;;;;4967395;28;20113;-75
2022/11/25 17:34:28;;;;;;;7.60;2.45;;;9.10;99.90;;;;;;4984666;28;20059;-74
2022/11/25 17:36:55;;;;;;;11.27;2.35;;;9.10;99.90;;;;;;4967125;28;20106;-77
2022/11/25 17:39:21;;;;;;;8.57;3.05;;;9.10;99.90;;;;;;4966920;28;20030;-75
2022/11/25 17:41:49;;;;;;;11.30;3.25;;;9.10;99.90;;;;;;4966742;28;20030;-77
2022/11/25 17:44:27;;;;;;;9.70;2.90;;;9.10;99.90;;;;;;4970780;28;20034;-74
2022/11/25 17:46:55;;;;;;;10.52;3.03;;;9.10;99.90;;;;;;4983275;28;20038;-75
2022/11/25 17:49:27;;;;;;;9.88;2.92;;;9.10;99.90;;;;;;4967901;28;20034;-76
2022/11/25 17:51:53;;;;;;;12.25;3.00;;;9.10;99.90;;;;;;4983814;28;20047;-75
2022/11/25 17:54:22;;;;;;;10.30;3.17;;;9.10;99.90;;;;;;4984645;28;20041;-75
2022/11/25 17:56:54;;;;;;;10.90;3.10;;;9.10;99.90;;;;;;4983960;28;20105;-75
2022/11/25 17:59:31;;;;;;;11.50;2.70;;;9.00;99.90;;;;;;4984055;28;20089;-76
2022/11/25 18:02:00;;;;;;;8.77;3.28;;;9.00;99.90;;;;;;4963240;29;20043;-74
2022/11/25 18:04:37;;;;;;;11.20;3.65;;;9.00;99.90;;;;;;4958863;28;20140;-75
2022/11/25 18:07:06;;;;;;;11.88;3.67;;;9.00;99.90;;;;;;4983843;28;20085;-74
2022/11/25 18:09:34;;;;;;;8.85;3.15;;;9.00;99.90;;;;;;4983794;28;20026;-75
2022/11/25 18:12:05;;;;;;;12.77;3.70;;;8.90;99.90;;;;;;4984101;28;20035;-74
2022/11/25 18:14:37;;;;;;;13.40;3.53;;;8.90;99.90;;;;;;4985260;28;20034;-73
2022/11/25 18:17:05;;;;;;;10.07;3.42;;;8.90;99.90;;;;;;4973563;29;20217;-74
2022/11/25 18:19:32;;;;;;;;;;;8.90;99.90;;;;;;4973873;28;20031;-74
2022/11/25 18:22:04;;;;;;;9.80;2.97;;;8.80;99.90;;;;;;4967108;28;19906;-77
2022/11/25 18:24:30;;;;;;;11.48;3.13;;;8.80;99.90;;;;;;4968802;28;20098;-75
2022/11/25 18:26:56;;;;;;;11.45;3.00;;;8.70;99.90;;;;;;4983483;28;20026;-74
2022/11/25 18:29:26;;;;;;;10.65;3.60;;;8.70;99.90;;;;;;4983890;28;20297;-78
2022/11/25 18:31:55;;;;;;;10.55;3.05;;;8.80;99.90;;;;;;4964937;28;20116;-76
2022/11/25 18:34:24;;;;;;;;;;;8.80;99.90;;;;;;4964956;28;20046;-73
2022/11/25 18:36:56;;;;;;;10.10;4.10;;;8.80;99.90;;;;;;4962817;29;20094;-74
2022/11/25 18:39:34;;;;;;;11.73;3.42;;;8.80;99.90;;;;;;4962866;29;20035;-72
2022/11/25 18:42:05;;;;;;;10.85;4.15;;;8.80;99.90;;;;;;4966056;28;20023;-74
2022/11/25 18:44:43;;;;;;;14.77;4.00;;;8.70;99.90;;;;;;4982613;28;20046;-76
2022/11/25 18:47:22;;;;;;;9.70;3.65;;;8.70;99.90;;;;;;4962343;29;20055;-74
2022/11/25 18:49:56;;;;;;;11.00;3.65;;;8.70;99.90;;;;;;4962887;28;20098;-75
2022/11/25 18:52:54;;;;;;;11.10;3.30;;;8.70;99.90;;;;;;4978048;28;20074;-76
2022/11/25 18:55:51;;;;;;;11.48;3.33;;;8.70;99.90;;;;;;4988396;28;20034;-74
2022/11/25 18:58:48;;;;;;;12.85;3.50;;;8.70;99.90;;;;;;4983441;28;20078;-75
2022/11/25 19:01:26;;;;;;;8.00;2.90;;;8.60;99.90;;;;;;4965861;28;20118;-76
2022/11/25 19:03:58;;;;;;;12.55;3.58;;;8.60;99.90;;;;;;4980837;28;20058;-77
2022/11/25 19:06:29;;;;;;;12.73;3.33;;;8.50;99.90;;;;;;4980988;28;20051;-76
2022/11/25 19:09:59;;;;;;;12.02;3.58;;;8.40;99.90;;;;;;4969117;28;20039;-77
2022/11/25 19:56:39;;;;;;;12.00;3.10;;;8.30;99.90;;;;;;4808977;29;20038;-76
2022/11/25 20:03:49;;;;;;;;;;;;;;;;;;;;;
2022/11/25 20:06:41;;;;;;;8.63;3.10;;;8.20;99.90;;;;;;4846393;29;20037;-76
2022/11/25 20:32:34;;;;;;;10.30;3.60;;;8.10;99.90;;;;;;4773713;30;20042;-75
2022/11/25 21:02:45;;;;;;;15.05;4.03;;;7.80;99.90;;;;;;4793243;30;20081;-76
2022/11/25 21:34:33;;;;;;;7.53;3.22;;;7.20;99.90;;;;;;4738849;30;20109;-77
2022/11/25 22:01:14;;;;;;;13.05;3.50;;;7.10;99.90;;;;;;4794818;29;20032;-76
2022/11/25 22:04:16;;;;;;;10.18;3.53;;;7.10;99.90;;;;;;4804690;29;20086;-75
2022/11/25 22:11:24;;;;;;;16.17;3.20;;;7.00;99.90;;;;;;4813147;29;20038;-77
2022/11/25 22:42:53;;;;;;;11.88;4.65;;;6.70;99.90;;;;;;4758825;30;20105;-75
2022/11/25 22:46:20;;;;;;;13.98;4.45;;;6.80;99.90;;;;;;4813890;29;20057;-75
2022/11/25 22:53:17;;;;;;;13.35;5.80;;;6.90;99.90;;;;;;4885707;29;20412;-75
2022/11/25 23:00:20;;;;;;;11.38;5.03;;;7.00;99.90;;;;;;4980762;28;20065;-77
2022/11/25 23:03:42;;;;;;;10.75;4.45;;;7.00;99.90;;;;;;4982852;28;20026;-76
2022/11/25 23:10:40;;;;;;;12.85;4.75;;;7.10;99.90;;;;;;4966615;28;20045;-75
2022/11/25 23:13:42;;;;;;;15.20;4.93;;;7.00;99.90;;;;;;4950120;28;20197;-76
2022/11/25 23:16:58;;;;;;;;;;;;;;;;;;;;;
2022/11/25 23:20:54;;;;;;;15.07;5.53;;;6.90;99.90;;;;;;5003674;28;20045;-75
2022/11/25 23:28:41;;;;;;;;;;;;;;;;;;;;;
2022/11/25 23:32:26;;;;;;;16.90;7.93;;;6.90;99.90;;;;;;4846459;29;20279;-75